Latest Coastal Weather Observations for Kowanyama

IDQ60701

Issued at 10:15 pm EST Wednesday 23 April 2014 (issued every 10 minutes, with the page automatically refreshed every 10 minutes)

About coastal observations | Map of coastal stations | Coastal observations for QLD | Marine services | Other Formats
Station Details ID: 029038 Name: KOWANYAMA AIRPORT Lat: -15.48 Lon: 141.75 Height: 9.6 m
Data from the previous 72 hours. | See also: Recent months at Kowanyama
Date/Time
EST
Temp

°C
Wind Pressure Rain
since 9am
mm
Weather Cloud Vis
km
Sea
Height
m
Swell
Dir
 
Speed
knots
Gust
knots
hPa Trend Height
m
Period
s
Dir
23/10:00pm 25.4 SE 4 6 1011.3 - 0.0 - - - - - - -
23/09:30pm 25.4 SSE 5 6 1011.4 - 0.0 - - - - - - -
23/09:00pm 25.6 S 4 6 1011.2 - 0.0 - - - - - - -
23/08:30pm 25.8 S 4 6 1011.1 - 0.0 - - - - - - -
23/08:00pm 25.9 SSW 3 5 1010.7 - 0.0 - - - - - - -
23/07:30pm 26.3 SE 4 5 1010.2 - 0.0 - - - - - - -
23/07:00pm 26.2 S 4 5 1010.3 - 0.0 - - - - - - -
23/06:30pm 26.4 S 3 4 1010.2 - 0.0 - - - - - - -
23/06:00pm 26.7 SSE 3 4 1009.9 - 0.0 - - - - - - -
23/05:30pm 27.0 SSE 3 4 1009.7 - 0.0 - - - - - - -
23/05:00pm 27.4 SSE 4 5 1009.6 - 0.0 - - - - - - -
23/04:30pm 27.7 SE 5 7 1009.3 - 0.0 - - - - - - -
23/04:00pm 27.9 SE 5 8 1009.2 - 0.0 - - - - - - -
23/03:30pm 27.9 SE 6 8 1009.1 - 0.0 - - - - - - -
23/03:00pm 27.8 SE 7 9 1009.3 - 0.0 - - - - - - -
23/02:30pm 27.5 ESE 6 9 1009.8 - 0.0 - - - - - - -
23/02:00pm 27.1 ESE 5 7 1010.1 - 0.0 - - - - - - -
23/01:30pm 26.9 ESE 5 7 1010.5 - 0.0 - - - - - - -
23/01:00pm 26.8 SSE 5 7 1011.1 - 0.0 - - - - - - -
23/12:30pm 26.8 ENE 5 7 1011.3 - 0.0 - - - - - - -
23/12:00pm 27.3 ESE 7 10 1011.7 - 0.0 - - - - - - -
23/11:30am 27.0 E 6 9 1012.1 - 0.0 - - - - - - -
23/11:00am 26.7 E 6 8 1012.3 - 0.0 - - - - - - -
23/10:30am 26.7 E 6 9 1012.6 - 0.0 - - - - - - -
23/10:00am 25.8 E 6 9 1013.0 - 0.0 - - - - - - -
23/09:30am 25.3 E 5 7 1012.9 - 0.0 - - - - - - -
23/09:00am 24.7 ESE 5 7 1012.6 - 0.0 - - - - - - -
23/08:30am 24.4 ESE 4 6 1012.5 - 0.0 - - - - - - -
23/08:00am 24.3 ESE 5 6 1012.0 - 0.0 - - - - - - -
23/07:30am 24.1 SSE 4 5 1012.1 - 0.0 - - - - - - -
23/07:00am 23.9 E 5 7 1011.0 - 0.0 - - - - - - -
23/06:30am 23.9 SE 3 5 1011.3 - 0.0 - - - - - - -
23/06:00am 24.0 ESE 4 5 1010.5 - 0.0 - - - - - - -
23/05:30am 24.1 SSE 4 5 1010.8 - 0.0 - - - - - - -
23/05:00am 24.2 E 5 7 1009.8 - 0.0 - - - - - - -
23/04:30am 24.3 ESE 5 6 1010.0 - 0.0 - - - - - - -
23/04:00am 24.3 ESE 5 7 1009.7 - 0.0 - - - - - - -
23/03:30am 24.3 E 4 6 1009.7 - 0.0 - - - - - - -
23/03:00am 24.4 ESE 5 7 1009.8 - 0.0 - - - - - - -
23/02:30am 24.4 ESE 4 5 1010.3 - 0.0 - - - - - - -
23/02:00am 24.5 E 4 5 1010.5 - 0.0 - - - - - - -
23/01:30am 24.8 ESE 5 6 1010.6 - 0.0 - - - - - - -
23/01:00am 25.1 ESE 5 7 1010.9 - 0.0 - - - - - - -
23/12:30am 25.2 ESE 6 9 1011.0 - 0.0 - - - - - - -
23/12:00am 25.5 ESE 5 7 1011.5 - 0.0 - - - - - - -
 
Date/Time
EST
Temp

°C
Wind Pressure Rain
since 9am
mm
Weather Cloud Vis
km
Sea
Height
m
Swell
Dir
 
Speed
knots
Gust
knots
hPa Trend Height
m
Period
s
Dir
22/11:30pm 25.4 SE 5 7 1011.8 - 0.0 - - - - - - -
22/11:00pm 25.8 ESE 7 9 1011.7 - 0.0 - - - - - - -
22/10:30pm 25.8 ESE 5 6 1011.9 - 0.0 - - - - - - -
22/10:00pm 26.0 ESE 5 6 1012.1 - 0.0 - - - - - - -
22/09:30pm 26.3 SE 5 6 1012.1 - 0.0 - - - - - - -
22/09:00pm 27.0 ESE 5 7 1011.5 - 0.0 - - - - - - -
22/08:30pm 27.4 ESE 6 9 1011.3 - 0.0 - - - - - - -
22/08:00pm 26.8 SE 5 6 1011.4 - 0.0 - - - - - - -
22/07:30pm 27.5 ESE 5 7 1011.1 - 0.0 - - - - - - -
22/07:00pm 27.4 ESE 5 6 1011.0 - 0.0 - - - - - - -
22/06:30pm 27.4 ESE 4 6 - - 0.0 - - - - - - -
22/06:00pm 27.9 ESE 4 5 1010.5 - 0.0 - - - - - - -
22/05:30pm 28.6 SE 7 9 1010.3 - 0.0 - - - - - - -
22/05:00pm 28.4 SE 6 7 1010.2 - 0.0 - - - - - - -
22/04:30pm 28.7 ESE 6 9 1009.9 - 0.0 - - - - - - -
22/04:00pm 30.0 ESE 8 11 1009.9 - 0.0 - - - - - - -
22/03:30pm 30.2 ESE 7 9 1009.7 - 0.0 - - - - - - -
22/03:00pm 31.0 ESE 7 9 1009.6 - 0.0 - - - - - - -
22/02:30pm 30.4 E 7 9 1009.9 - 0.0 - - - - - - -
22/02:00pm 31.5 ESE 8 12 1010.3 - 0.0 - - - - - - -
22/01:30pm 30.4 ENE 8 12 1010.6 - 0.0 - - - - - - -
22/01:00pm 31.1 E 8 14 1010.9 - 0.0 - - - - - - -
22/12:30pm 29.7 ENE 9 14 1011.6 - 0.0 - - - - - - -
22/12:00pm 30.3 ENE 9 13 1012.0 - 0.0 - - - - - - -
22/11:30am 29.1 E 9 15 1012.9 - 0.0 - - - - - - -
22/11:00am 28.6 ENE 9 17 1013.4 - 0.0 - - - - - - -
22/10:30am 28.4 E 8 12 1013.7 - 0.0 - - - - - - -
22/10:00am 27.4 E 7 9 1013.7 - 0.0 - - - - - - -
22/09:30am 26.8 E 8 12 1013.7 - 0.0 - - - - - - -
22/09:00am 26.0 ESE 6 9 1013.3 - 0.8 - - - - - - -
22/08:30am 25.5 ESE 7 10 1013.3 - 0.8 - - - - - - -
22/08:00am 25.0 SE 6 8 1013.3 - 0.8 - - - - - - -
22/07:30am 24.5 SE 5 6 1013.1 - 0.8 - - - - - - -
22/07:00am 23.7 ESE 4 5 1012.7 - 0.8 - - - - - - -
22/06:30am 23.7 ESE 4 6 1012.3 - 0.8 - - - - - - -
22/06:00am 23.8 SE 5 7 1011.7 - 0.8 - - - - - - -
22/05:30am 23.9 SE 6 8 1011.7 - 0.8 - - - - - - -
22/05:00am 23.6 SE 5 6 1011.5 - 0.8 - - - - - - -
22/04:30am 23.8 ESE 5 6 1011.8 - 0.8 - - - - - - -
22/04:00am 23.8 ESE 4 6 1011.7 - 0.8 - - - - - - -
22/03:30am 23.8 ESE 5 7 1011.8 - 0.8 - - - - - - -
22/03:00am 24.0 ESE 4 6 1011.8 - 0.8 - - - - - - -
22/02:30am 24.1 SE 6 8 1011.9 - 0.8 - - - - - - -
22/02:00am 24.1 SE 6 10 1012.1 - 0.8 - - - - - - -
22/01:30am 24.1 ESE 5 7 1012.3 - 0.8 - - - - - - -
22/01:00am 24.2 SE 6 8 1012.5 - 0.8 - - - - - - -
22/12:30am 24.3 ESE 4 5 1012.9 - 0.8 - - - - - - -
22/12:00am 24.3 SE 5 6 1012.9 - 0.8 - - - - - - -
 
Date/Time
EST
Temp

°C
Wind Pressure Rain
since 9am
mm
Weather Cloud Vis
km
Sea
Height
m
Swell
Dir
 
Speed
knots
Gust
knots
hPa Trend Height
m
Period
s
Dir
21/11:30pm 24.3 ESE 5 7 1013.2 - 0.8 - - - - - - -
21/11:00pm 24.6 ESE 4 6 1013.6 - 0.6 - - - - - - -
21/10:30pm 25.0 E 5 7 1013.6 - 0.4 - - - - - - -
21/10:00pm 25.7 SE 8 10 1013.5 - 0.0 - - - - - - -
21/09:30pm 26.0 SE 9 11 1013.3 - 0.0 - - - - - - -
21/09:00pm 26.6 SE 13 19 1013.0 - 0.0 - - - - - - -
21/08:30pm 27.1 SE 6 8 1012.5 - 0.0 - - - - - - -
21/08:00pm 27.6 ESE 5 6 1012.2 - 0.0 - - - - - - -
21/07:30pm 27.5 ESE 4 5 1011.9 - 0.0 - - - - - - -
21/07:00pm 27.5 SE 4 5 1011.5 - 0.0 - - - - - - -
21/06:30pm 28.4 ESE 4 5 1011.2 - 0.0 - - - - - - -
21/06:00pm 28.6 E 4 6 1011.0 - 0.0 - - - - - - -
21/05:30pm 29.0 E 3 5 1011.0 - 0.0 - - - - - - -
21/05:00pm 29.4 ENE 1 4 1010.8 - 0.0 - - - - - - -
21/04:30pm 29.7 E 4 5 1010.4 - 0.0 - - - - - - -
21/04:00pm 30.2 ESE 5 7 1010.4 - 0.0 - - - - - - -
21/03:30pm 30.7 E 6 10 1010.2 - 0.0 - - - - - - -
21/03:00pm 30.6 E 6 9 1010.1 - 0.0 - - - - - - -
21/02:30pm 31.1 ENE 7 13 1010.2 - 0.0 - - - - - - -
21/02:00pm 31.0 ENE 8 15 1010.4 - 0.0 - - - - - - -
21/01:30pm 31.8 E 8 13 1010.7 - 0.0 - - - - - - -
21/01:00pm 31.7 ESE 10 14 1010.9 - 0.0 - - - - - - -
21/12:30pm 31.0 E 9 14 1011.2 - 0.0 - - - - - - -
21/12:00pm 30.5 E 10 16 1011.5 - 0.0 - - - - - - -
21/11:30am 30.5 E 10 15 1012.0 - 0.0 - - - - - - -
21/11:00am 29.9 E 10 15 1012.4 - 0.0 - - - - - - -
21/10:30am 29.3 E 10 16 1012.8 - 0.0 - - - - - - -
21/10:00am 28.6 E 10 16 1012.9 - 0.0 - - - - - - -
21/09:30am 27.6 E 8 13 1013.0 - 0.0 - - - - - - -
21/09:00am 25.7 E 6 8 1013.0 - 0.0 - - - - - - -
21/08:30am 24.3 E 7 9 1012.9 - 0.0 - - - - - - -
21/08:00am 22.9 ESE 5 6 1012.7 - 0.0 - - - - - - -
21/07:30am 21.5 SE 5 6 1012.6 - 0.0 - - - - - - -
21/07:00am 19.8 SSE 3 4 1012.4 - 0.0 - - - - - - -
21/06:30am 20.1 ESE 4 6 1012.1 - 0.0 - - - - - - -
21/06:00am 19.8 SE 3 5 1011.8 - 0.0 - - - - - - -
21/05:30am 20.2 SE 2 4 1011.6 - 0.0 - - - - - - -
21/05:00am 20.4 SSE 2 4 1011.4 - 0.0 - - - - - - -
21/04:30am 20.8 CALM 0 3 1011.2 - 0.0 - - - - - - -
21/04:00am 20.7 SE 2 5 1011.2 - 0.0 - - - - - - -
21/03:30am 21.3 SE 3 4 1011.1 - 0.0 - - - - - - -
21/03:00am 22.3 E 3 5 1010.9 - 0.0 - - - - - - -
21/02:30am 22.8 E 4 5 1011.2 - 0.0 - - - - - - -
21/02:00am 23.1 E 4 6 1011.5 - 0.0 - - - - - - -
21/01:30am 23.1 E 4 5 1011.5 - 0.0 - - - - - - -
21/01:00am 23.6 E 4 6 1011.6 - 0.0 - - - - - - -
21/12:30am 24.0 E 4 6 1011.8 - 0.0 - - - - - - -
21/12:00am 24.2 E 4 6 1011.9 - 0.0 - - - - - - -
 
Date/Time
EST
Temp

°C
Wind Pressure Rain
since 9am
mm
Weather Cloud Vis
km
Sea
Height
m
Swell
Dir
 
Speed
knots
Gust
knots
hPa Trend Height
m
Period
s
Dir
20/11:30pm 24.7 ESE 5 7 1012.2 - 0.0 - - - - - - -
20/11:00pm 24.9 E 4 6 1012.4 - 0.0 - - - - - - -
20/10:30pm 25.3 E 4 6 1012.6 - 0.0 - - - - - - -

Other Formats:

Comma delimited format used in spreadsheet applications
http://www.bom.gov.au/fwo/IDQ60701/IDQ60701.94268.axf

JavaScript Object Notation format (JSON) in row-major order
http://www.bom.gov.au/fwo/IDQ60701/IDQ60701.94268.json